Time;durP1;ratioP1;P1;durP2;ratioP2;P2;SDS_P1;SDS_P2;PMS_P1;PMS_P2;Temp;Humidity;BMP_temperature;BMP_pressure;BME280_temperature;BME280_humidity;BME280_pressure;Samples;Min_cycle;Max_cycle;Signal;HPM_P1;HPM_P2
2023/04/24 00:00:28;;;;;;;5.45;5.05;;;;;;;9.17;100.00;99705.09;1044824;28;20295;-79
2023/04/24 00:01:00;;;;;;;5.60;5.10;;;;;;;9.14;100.00;99702.91;1040450;28;20304;-79
2023/04/24 00:01:33;;;;;;;7.78;4.88;;;;;;;9.11;100.00;99706.03;1035505;28;20347;-79
2023/04/24 00:02:06;;;;;;;5.03;4.63;;;;;;;9.06;100.00;99713.91;1031354;28;20692;-80
2023/04/24 00:02:38;;;;;;;5.25;4.85;;;;;;;9.08;100.00;99703.84;1034938;28;20309;-79
2023/04/24 00:03:10;;;;;;;6.10;5.22;;;;;;;9.12;100.00;99708.47;1037256;28;20324;-79
2023/04/24 00:03:42;;;;;;;5.22;4.82;;;;;;;9.09;100.00;99714.25;1043603;28;20349;-80
2023/04/24 00:04:16;;;;;;;4.82;4.43;;;;;;;9.10;100.00;99710.53;1043907;28;20299;-79
2023/04/24 00:04:48;;;;;;;4.93;4.53;;;;;;;9.15;100.00;99707.97;1043470;28;20327;-79
2023/04/24 00:05:20;;;;;;;5.47;4.93;;;;;;;9.09;100.00;99716.09;1041557;28;20362;-80
2023/04/24 00:05:52;;;;;;;6.38;5.28;;;;;;;9.02;100.00;99712.72;1043680;28;20352;-79
2023/04/24 00:06:24;;;;;;;7.70;5.18;;;;;;;9.07;100.00;99712.88;1041175;28;20299;-81
2023/04/24 00:06:56;;;;;;;5.20;4.70;;;;;;;9.06;100.00;99714.72;1047356;28;20662;-80
2023/04/24 00:07:29;;;;;;;6.20;5.10;;;;;;;9.11;100.00;99717.47;1048870;28;20393;-80
2023/04/24 00:08:01;;;;;;;5.80;5.05;;;;;;;9.10;100.00;99718.50;1039984;28;20312;-81
2023/04/24 00:08:32;;;;;;;5.32;4.82;;;;;;;9.13;100.00;99714.56;1043695;28;20689;-80
2023/04/24 00:09:04;;;;;;;6.05;5.45;;;;;;;9.18;100.00;99707.50;1042993;28;20832;-80
2023/04/24 00:09:36;;;;;;;5.18;4.78;;;;;;;9.11;100.00;99714.81;1036328;28;20655;-80
2023/04/24 00:10:08;;;;;;;6.40;5.80;;;;;;;9.20;100.00;99720.56;1035497;28;20671;-80
2023/04/24 00:10:40;;;;;;;6.53;4.85;;;;;;;9.18;100.00;99717.34;1034650;28;20290;-80
2023/04/24 00:11:11;;;;;;;6.40;5.75;;;;;;;9.15;100.00;99718.63;1039497;28;20311;-80
2023/04/24 00:11:43;;;;;;;5.55;5.05;;;;;;;9.16;100.00;99719.41;1039926;28;20300;-79
2023/04/24 00:12:14;;;;;;;7.30;4.90;;;;;;;9.15;100.00;99715.16;1033756;28;20297;-80
2023/04/24 00:12:46;;;;;;;5.97;5.47;;;;;;;9.16;100.00;99712.25;1039524;28;20295;-79
2023/04/24 00:13:18;;;;;;;6.57;6.00;;;;;;;9.14;100.00;99716.19;1039311;28;20299;-80
2023/04/24 00:13:49;;;;;;;6.18;5.57;;;;;;;9.23;100.00;99720.09;1040050;28;20372;-80
2023/04/24 00:14:21;;;;;;;5.85;5.35;;;;;;;9.25;100.00;99718.00;1043265;28;20350;-80
2023/04/24 00:14:53;;;;;;;5.25;4.75;;;;;;;9.19;100.00;99713.63;1035944;28;20300;-80
2023/04/24 00:15:24;;;;;;;6.53;4.97;;;;;;;9.13;100.00;99712.72;1041420;28;20300;-79
2023/04/24 00:15:56;;;;;;;5.70;5.20;;;;;;;9.20;100.00;99715.25;1043416;28;20299;-79
2023/04/24 00:16:28;;;;;;;6.00;5.47;;;;;;;9.20;100.00;99723.22;1043947;28;20310;-79
2023/04/24 00:17:00;;;;;;;6.72;6.15;;;;;;;9.23;100.00;99714.78;1047676;28;20286;-80
2023/04/24 00:17:31;;;;;;;6.05;5.55;;;;;;;9.19;100.00;99718.94;1043944;28;20307;-80
2023/04/24 00:18:03;;;;;;;6.05;5.55;;;;;;;9.14;100.00;99708.22;1046173;28;20318;-80
2023/04/24 00:18:35;;;;;;;6.60;6.05;;;;;;;9.20;100.00;99716.06;1045777;28;20309;-80
2023/04/24 00:19:07;;;;;;;5.40;4.97;;;;;;;9.12;100.00;99713.78;1044596;28;20777;-80
2023/04/24 00:19:38;;;;;;;6.80;6.20;;;;;;;9.18;100.00;99722.66;1046184;28;20377;-80
2023/04/24 00:20:10;;;;;;;6.22;5.65;;;;;;;9.21;100.00;99716.84;1045491;28;20369;-80
2023/04/24 00:20:43;;;;;;;6.13;5.63;;;;;;;9.26;100.00;99730.25;1047529;28;20681;-80
2023/04/24 00:21:17;;;;;;;6.70;6.10;;;;;;;9.16;100.00;99714.09;1043316;28;20370;-79
2023/04/24 00:21:55;;;;;;;6.38;5.85;;;;;;;9.27;100.00;99714.06;1040387;28;20295;-81
2023/04/24 00:22:27;;;;;;;6.30;5.70;;;;;;;9.25;100.00;99729.44;1039388;28;20786;-80
2023/04/24 00:22:59;;;;;;;6.45;5.95;;;;;;;9.21;100.00;99727.50;1035244;28;20656;-81
2023/04/24 00:23:31;;;;;;;6.72;6.13;;;;;;;9.22;100.00;99721.13;1042010;28;20296;-81
2023/04/24 00:24:03;;;;;;;6.20;5.70;;;;;;;9.25;100.00;99728.63;1045031;28;20762;-81
2023/04/24 00:24:34;;;;;;;6.72;6.20;;;;;;;9.32;100.00;99721.34;1045525;28;20626;-81
2023/04/24 00:25:06;;;;;;;6.25;5.75;;;;;;;9.28;100.00;99722.84;1047680;28;20365;-81
2023/04/24 00:25:38;;;;;;;6.25;5.75;;;;;;;9.30;100.00;99720.75;1044885;28;20364;-82
2023/04/24 00:26:10;;;;;;;7.05;6.40;;;;;;;9.25;100.00;99723.31;1041043;28;20774;-81
2023/04/24 00:26:42;;;;;;;7.00;6.30;;;;;;;9.22;100.00;99732.56;1039785;28;20319;-79
2023/04/24 00:27:13;;;;;;;7.38;6.78;;;;;;;9.29;100.00;99729.78;1043808;28;20299;-81
2023/04/24 00:27:45;;;;;;;8.38;7.57;;;;;;;9.28;100.00;99720.19;1040185;28;20304;-80
2023/04/24 00:28:17;;;;;;;7.95;7.25;;;;;;;9.29;100.00;99727.91;1046425;28;20298;-81
2023/04/24 00:28:48;;;;;;;7.68;6.97;;;;;;;9.26;100.00;99731.06;1047988;28;20772;-81
2023/04/24 00:29:20;;;;;;;7.55;6.85;;;;;;;9.34;100.00;99726.44;1044257;28;20315;-81
2023/04/24 00:29:51;;;;;;;9.20;6.95;;;;;;;9.26;100.00;99724.94;1043392;28;20306;-81
2023/04/24 00:30:23;;;;;;;8.25;7.57;;;;;;;9.26;100.00;99728.41;1035497;28;20659;-80
2023/04/24 00:30:54;;;;;;;7.45;6.85;;;;;;;9.24;100.00;99729.69;1033932;28;20308;-80
2023/04/24 00:31:26;;;;;;;8.15;7.38;;;;;;;9.26;100.00;99732.91;1031292;28;20433;-80
2023/04/24 00:31:58;;;;;;;8.40;7.63;;;;;;;9.26;100.00;99725.75;1027755;28;20313;-79
2023/04/24 00:32:29;;;;;;;8.98;8.05;;;;;;;9.29;100.00;99730.56;1031352;28;20297;-80
2023/04/24 00:33:01;;;;;;;8.55;7.85;;;;;;;9.34;100.00;99729.09;1030642;28;20311;-81
2023/04/24 00:33:33;;;;;;;8.48;7.63;;;;;;;9.35;100.00;99736.81;1033736;28;20327;-81
2023/04/24 00:34:05;;;;;;;7.68;7.00;;;;;;;9.29;100.00;99719.94;1035659;28;20390;-80
2023/04/24 00:34:37;;;;;;;8.82;7.93;;;;;;;9.31;100.00;99727.69;1039970;28;20338;-82
2023/04/24 00:35:08;;;;;;;8.77;7.88;;;;;;;9.34;100.00;99727.25;1035643;28;20300;-82
2023/04/24 00:35:40;;;;;;;8.55;7.70;;;;;;;9.33;100.00;99735.44;1035044;28;20659;-81
2023/04/24 00:36:12;;;;;;;9.38;8.38;;;;;;;9.37;100.00;99726.78;1034932;28;20312;-81
2023/04/24 00:36:44;;;;;;;10.23;9.23;;;;;;;9.37;100.00;99726.78;1035512;28;20786;-81
2023/04/24 00:37:16;;;;;;;9.32;8.43;;;;;;;9.35;100.00;99734.16;1039302;28;20300;-81
2023/04/24 00:37:48;;;;;;;8.25;7.53;;;;;;;9.32;100.00;99724.00;1038959;28;20300;-81
2023/04/24 00:38:20;;;;;;;9.20;8.30;;;;;;;9.29;100.00;99722.59;1035546;28;20301;-81
2023/04/24 00:38:51;;;;;;;9.88;8.73;;;;;;;9.27;100.00;99727.34;1027643;28;20384;-81
2023/04/24 00:39:23;;;;;;;9.02;8.18;;;;;;;9.33;100.00;99725.63;1031782;28;20796;-81
2023/04/24 00:39:55;;;;;;;12.52;8.73;;;;;;;9.37;100.00;99721.47;1042111;28;20287;-81
2023/04/24 00:40:27;;;;;;;9.52;8.68;;;;;;;9.39;100.00;99735.31;1043545;28;20326;-81
2023/04/24 00:40:59;;;;;;;9.88;8.98;;;;;;;9.41;100.00;99738.53;1043062;28;20295;-81
2023/04/24 00:41:31;;;;;;;9.35;8.55;;;;;;;9.34;100.00;99716.63;1039534;28;20674;-79
2023/04/24 00:42:05;;;;;;;9.90;9.00;;;;;;;9.36;100.00;99724.34;1035448;28;20439;-81
2023/04/24 00:42:37;;;;;;;9.40;8.50;;;;;;;9.35;100.00;99717.41;1032039;28;20301;-82
2023/04/24 00:43:09;;;;;;;9.68;8.73;;;;;;;9.28;100.00;99722.84;1031269;28;20294;-80
2023/04/24 00:43:41;;;;;;;9.82;8.93;;;;;;;9.33;100.00;99730.13;1036294;28;20301;-80
2023/04/24 00:44:13;;;;;;;10.10;8.98;;;;;;;9.32;100.00;99728.53;1035021;28;20663;-80
2023/04/24 00:44:45;;;;;;;9.88;8.93;;;;;;;9.32;100.00;99726.66;1033128;28;20309;-82
2023/04/24 00:45:17;;;;;;;10.15;9.15;;;;;;;9.36;100.00;99729.66;1037475;28;20292;-82
2023/04/24 00:45:48;;;;;;;10.57;9.55;;;;;;;9.32;100.00;99733.84;1035633;28;20304;-82
2023/04/24 00:46:20;;;;;;;10.07;9.13;;;;;;;9.33;100.00;99730.13;1036984;28;20301;-82
2023/04/24 00:46:54;;;;;;;10.32;9.40;;;;;;;9.25;100.00;99724.13;1034208;28;20308;-80
2023/04/24 00:47:26;;;;;;;10.63;9.55;;;;;;;9.33;100.00;99724.81;1035093;28;20308;-82
2023/04/24 00:48:00;;;;;;;9.82;8.93;;;;;;;9.35;100.00;99730.72;1036026;28;20308;-81
2023/04/24 00:48:33;;;;;;;10.50;9.43;;;;;;;9.28;100.00;99730.81;1040736;28;20304;-80
2023/04/24 00:49:08;;;;;;;10.57;9.55;;;;;;;9.30;100.00;99731.38;1045607;28;20681;-80
2023/04/24 00:49:39;;;;;;;11.45;10.13;;;;;;;9.38;100.00;99727.56;1047850;28;20314;-79
2023/04/24 00:50:13;;;;;;;13.23;9.75;;;;;;;9.43;100.00;99727.66;1045136;28;20716;-79
2023/04/24 00:50:45;;;;;;;11.57;9.88;;;;;;;9.38;100.00;99733.69;1043155;28;20855;-80
2023/04/24 00:51:18;;;;;;;10.55;9.55;;;;;;;9.37;100.00;99725.97;1039462;28;20319;-80
2023/04/24 00:51:51;;;;;;;11.38;10.25;;;;;;;9.42;100.00;99729.53;1032838;28;20449;-79
2023/04/24 00:52:24;;;;;;;10.63;9.55;;;;;;;9.43;100.00;99741.75;1036883;28;20307;-80
2023/04/24 00:52:56;;;;;;;9.43;8.55;;;;;;;9.41;100.00;99727.09;1040352;28;20311;-79
2023/04/24 00:53:27;;;;;;;10.90;9.18;;;;;;;9.38;100.00;99723.06;1039536;28;20296;-80
2023/04/24 00:54:00;;;;;;;11.73;10.63;;;;;;;9.33;100.00;99730.13;1034842;28;20331;-77
2023/04/24 00:54:32;;;;;;;11.02;9.95;;;;;;;9.35;100.00;99728.06;1032383;28;20485;-78
2023/04/24 00:55:05;;;;;;;11.55;10.45;;;;;;;9.34;100.00;99732.56;1039672;28;20689;-79
2023/04/24 00:55:37;;;;;;;10.00;9.10;;;;;;;9.25;100.00;99724.13;1035972;28;20391;-78
2023/04/24 00:56:09;;;;;;;11.82;9.70;;;;;;;9.30;100.00;99720.75;1031661;28;20845;-78
2023/04/24 00:56:41;;;;;;;11.02;9.15;;;;;;;9.40;100.00;99726.28;1026978;28;20301;-78
2023/04/24 00:57:15;;;;;;;11.15;9.95;;;;;;;9.38;100.00;99730.22;1026478;28;20381;-78
2023/04/24 00:57:47;;;;;;;10.20;9.27;;;;;;;9.30;100.00;99728.72;1033427;28;20294;-80
2023/04/24 00:58:18;;;;;;;10.30;9.30;;;;;;;9.38;100.00;99733.69;1035375;28;20308;-80
2023/04/24 00:58:50;;;;;;;10.20;9.20;;;;;;;9.34;100.00;99727.25;1035497;28;20320;-82
2023/04/24 00:59:22;;;;;;;10.27;9.25;;;;;;;9.28;100.00;99738.78;1034956;28;20311;-79
2023/04/24 00:59:54;;;;;;;15.07;10.88;;;;;;;9.28;100.00;99738.78;1032298;28;20297;-79
2023/04/24 01:00:26;;;;;;;10.73;9.68;;;;;;;9.29;100.00;99730.56;1030368;28;20302;-79
2023/04/24 01:00:58;;;;;;;10.07;9.07;;;;;;;9.33;100.00;99730.13;1027956;28;20317;-78
2023/04/24 01:01:30;;;;;;;11.38;10.27;;;;;;;9.26;100.00;99730.25;1031202;28;20383;-79
2023/04/24 01:02:02;;;;;;;10.40;9.30;;;;;;;9.19;100.00;99727.72;1031347;28;20302;-78
2023/04/24 01:02:34;;;;;;;14.45;10.25;;;;;;;9.27;100.00;99726.53;1026559;28;20398;-78
2023/04/24 01:03:06;;;;;;;10.63;9.50;;;;;;;9.29;100.00;99727.13;1030787;28;20393;-78
2023/04/24 01:03:40;;;;;;;10.30;9.25;;;;;;;9.27;100.00;99731.84;1033286;28;20990;-78
2023/04/24 01:04:12;;;;;;;10.68;9.45;;;;;;;9.28;100.00;99728.16;1035419;28;20659;-80
2023/04/24 01:04:44;;;;;;;11.90;10.50;;;;;;;9.30;100.00;99726.88;1037713;28;20300;-78
2023/04/24 01:05:17;;;;;;;11.95;10.52;;;;;;;9.33;100.00;99736.25;1043992;28;20729;-79
2023/04/24 01:05:49;;;;;;;11.93;10.73;;;;;;;9.31;100.00;99727.69;1038878;28;20304;-78
2023/04/24 01:06:22;;;;;;;12.48;10.98;;;;;;;9.36;100.00;99729.66;1039325;28;20686;-78
2023/04/24 01:06:55;;;;;;;12.27;10.98;;;;;;;9.41;100.00;99741.19;1038951;28;20296;-79
2023/04/24 01:07:27;;;;;;;12.32;11.18;;;;;;;9.33;100.00;99732.78;1035435;28;20822;-79
2023/04/24 01:07:58;;;;;;;13.38;11.68;;;;;;;9.33;100.00;99740.75;1035062;28;20308;-78
2023/04/24 01:08:30;;;;;;;13.23;11.93;;;;;;;9.31;100.00;99738.31;1039914;28;20299;-79
2023/04/24 01:09:02;;;;;;;13.32;11.93;;;;;;;9.28;100.00;99734.28;1047500;28;20317;-79
2023/04/24 01:09:34;;;;;;;14.65;13.13;;;;;;;9.29;100.00;99727.13;1040998;28;20399;-79
2023/04/24 01:10:08;;;;;;;13.88;12.55;;;;;;;9.32;100.00;99737.31;1043171;28;20303;-78
2023/04/24 01:10:40;;;;;;;14.68;13.05;;;;;;;9.34;100.00;99727.25;1042367;28;20315;-79
2023/04/24 01:11:12;;;;;;;14.75;11.75;;;;;;;9.29;100.00;99737.75;1035945;28;20305;-79
2023/04/24 01:11:44;;;;;;;13.93;12.38;;;;;;;9.30;100.00;99737.50;1040285;28;20303;-79
2023/04/24 01:12:16;;;;;;;13.70;12.27;;;;;;;9.30;100.00;99728.72;1040270;28;20812;-79
2023/04/24 01:12:49;;;;;;;13.30;11.90;;;;;;;9.32;100.00;99739.97;1036073;28;20687;-79
2023/04/24 01:13:21;;;;;;;12.60;11.30;;;;;;;9.33;100.00;99730.94;1033341;28;20301;-80
2023/04/24 01:13:52;;;;;;;13.25;12.05;;;;;;;9.35;100.00;99734.16;1038656;28;20418;-78
2023/04/24 01:14:24;;;;;;;14.82;13.07;;;;;;;9.30;100.00;99732.19;1035452;28;20315;-79
2023/04/24 01:14:56;;;;;;;14.18;12.77;;;;;;;9.28;100.00;99733.47;1039940;28;20292;-79
2023/04/24 01:15:28;;;;;;;14.55;13.10;;;;;;;9.27;100.00;99735.31;1042389;28;20899;-79
2023/04/24 01:16:00;;;;;;;13.77;12.48;;;;;;;9.27;100.00;99731.84;1039793;28;20303;-79
2023/04/24 01:16:32;;;;;;;13.57;12.18;;;;;;;9.26;100.00;99741.69;1039410;28;20308;-80
2023/04/24 01:17:05;;;;;;;14.98;13.48;;;;;;;9.30;100.00;99732.19;1040406;28;20303;-79
2023/04/24 01:17:39;;;;;;;13.50;11.85;;;;;;;9.30;100.00;99731.38;1039483;28;20770;-80
2023/04/24 01:18:11;;;;;;;13.25;11.93;;;;;;;9.25;100.00;99739.25;1032034;28;20309;-80
2023/04/24 01:18:43;;;;;;;14.10;12.23;;;;;;;9.27;100.00;99747.81;1028793;28;20653;-80
2023/04/24 01:19:16;;;;;;;13.07;11.70;;;;;;;9.27;100.00;99745.94;1027458;28;20298;-79
2023/04/24 01:19:48;;;;;;;12.48;11.30;;;;;;;9.29;100.00;99740.41;1027764;28;20784;-80
2023/04/24 01:20:24;;;;;;;13.13;11.93;;;;;;;9.26;100.00;99740.88;1032230;28;20301;-80
2023/04/24 01:20:59;;;;;;;13.93;12.30;;;;;;;9.20;100.00;99731.19;1034851;28;20316;-80
2023/04/24 01:21:37;;;;;;;14.35;11.00;;;;;;;9.27;100.00;99731.84;1034086;28;20348;-80
2023/04/24 01:22:11;;;;;;;11.77;10.57;;;;;;;9.18;100.00;99733.28;1032682;28;20382;-80
2023/04/24 01:22:43;;;;;;;13.48;10.82;;;;;;;9.20;100.00;99733.84;1034801;28;20459;-80
2023/04/24 01:23:15;;;;;;;10.25;9.25;;;;;;;9.16;100.00;99740.66;1034818;28;20312;-80
2023/04/24 01:23:48;;;;;;;10.68;9.60;;;;;;;9.16;100.00;99730.84;1035344;28;20308;-80
2023/04/24 01:24:22;;;;;;;12.95;10.95;;;;;;;9.23;100.00;99736.03;1028868;28;20301;-79
2023/04/24 01:24:53;;;;;;;11.88;10.60;;;;;;;9.19;100.00;99741.00;1036089;28;20312;-80
2023/04/24 01:25:25;;;;;;;9.98;8.98;;;;;;;9.15;100.00;99728.44;1037552;28;20303;-80
2023/04/24 01:25:57;;;;;;;10.45;9.15;;;;;;;9.17;100.00;99731.66;1035836;28;20301;-78
2023/04/24 01:26:30;;;;;;;10.02;9.02;;;;;;;9.23;100.00;99736.84;1043885;28;20650;-80
2023/04/24 01:27:01;;;;;;;9.38;8.40;;;;;;;9.21;100.00;99740.78;1043372;28;20304;-80
2023/04/24 01:27:33;;;;;;;9.50;8.57;;;;;;;9.08;100.00;99736.53;1035828;28;20300;-80
2023/04/24 01:28:05;;;;;;;9.55;8.65;;;;;;;9.03;100.00;99732.94;1036105;28;20305;-80
2023/04/24 01:28:46;;;;;;;8.38;7.68;;;;;;;9.05;100.00;99733.53;1027194;28;20305;-80
2023/04/24 01:29:18;;;;;;;7.10;6.45;;;;;;;9.11;100.00;99732.59;1029006;28;20791;-80
2023/04/24 01:29:51;;;;;;;7.88;6.80;;;;;;;9.06;100.00;99735.16;1030622;28;20298;-80
2023/04/24 01:30:23;;;;;;;7.53;6.82;;;;;;;9.03;100.00;99736.41;1038926;28;20311;-80
2023/04/24 01:30:55;;;;;;;8.45;6.38;;;;;;;8.99;100.00;99740.56;1039977;28;20822;-80
2023/04/24 01:31:27;;;;;;;7.07;6.28;;;;;;;9.06;100.00;99730.66;1039263;28;20793;-78
2023/04/24 01:31:59;;;;;;;8.10;6.35;;;;;;;8.98;100.00;99736.28;1035617;28;20903;-78
2023/04/24 01:32:31;;;;;;;5.70;5.20;;;;;;;8.93;100.00;99739.66;1036696;28;20316;-77
2023/04/24 01:33:03;;;;;;;8.93;5.97;;;;;;;9.02;100.00;99739.28;1036067;28;21361;-78
2023/04/24 01:33:35;;;;;;;7.10;6.25;;;;;;;8.96;100.00;99739.19;1038151;28;20307;-81
2023/04/24 01:34:07;;;;;;;6.60;6.00;;;;;;;8.86;100.00;99746.94;1039867;28;20308;-81
2023/04/24 01:34:40;;;;;;;7.10;6.40;;;;;;;8.93;100.00;99737.00;1037245;28;20315;-81
2023/04/24 01:35:12;;;;;;;8.30;5.88;;;;;;;8.90;100.00;99742.78;1031542;28;20309;-81
2023/04/24 01:35:44;;;;;;;8.77;5.90;;;;;;;8.86;100.00;99741.63;1037302;28;20659;-78
2023/04/24 01:36:16;;;;;;;7.80;6.35;;;;;;;8.94;100.00;99753.75;1032977;28;20301;-78
2023/04/24 01:36:47;;;;;;;7.03;6.32;;;;;;;8.95;100.00;99747.38;1035013;28;20300;-78
2023/04/24 01:37:19;;;;;;;7.10;6.35;;;;;;;8.95;100.00;99736.75;1034797;28;20319;-79
2023/04/24 01:37:51;;;;;;;6.38;5.80;;;;;;;8.99;100.00;99744.03;1035796;28;20297;-78
2023/04/24 01:38:22;;;;;;;7.78;7.07;;;;;;;8.98;100.00;99742.41;1039250;28;20379;-78
2023/04/24 01:38:54;;;;;;;7.75;7.05;;;;;;;9.04;100.00;99738.03;1043380;28;20307;-79
2023/04/24 01:39:28;;;;;;;8.90;7.15;;;;;;;9.02;100.00;99742.75;1043875;28;20299;-79
2023/04/24 01:39:59;;;;;;;8.77;6.63;;;;;;;8.98;100.00;99741.59;1043244;28;20367;-78
2023/04/24 01:40:32;;;;;;;7.82;7.13;;;;;;;8.98;100.00;99734.44;1044744;28;20299;-79
2023/04/24 01:41:04;;;;;;;7.80;7.07;;;;;;;9.04;100.00;99747.84;1041101;28;20314;-78
2023/04/24 01:41:35;;;;;;;8.95;8.15;;;;;;;9.02;100.00;99750.72;1043364;28;20338;-79
2023/04/24 01:42:07;;;;;;;8.60;7.80;;;;;;;8.97;100.00;99743.47;1039122;28;20300;-79
2023/04/24 01:42:40;;;;;;;9.43;8.52;;;;;;;8.97;100.00;99737.34;1035381;28;20683;-79
2023/04/24 01:43:13;;;;;;;8.52;7.72;;;;;;;8.98;100.00;99734.44;1035409;28;20296;-79
2023/04/24 01:43:44;;;;;;;8.90;7.88;;;;;;;9.01;100.00;99737.69;1036123;28;20659;-79
2023/04/24 01:44:17;;;;;;;11.88;8.35;;;;;;;9.01;100.00;99735.81;1039989;28;20962;-79
2023/04/24 01:44:48;;;;;;;9.52;8.55;;;;;;;9.03;100.00;99733.75;1043493;28;20303;-79
2023/04/24 01:45:20;;;;;;;10.38;9.25;;;;;;;9.08;100.00;99743.69;1038586;28;20304;-79
2023/04/24 01:45:52;;;;;;;9.98;8.98;;;;;;;8.98;100.00;99739.75;1035592;28;20312;-78
2023/04/24 01:46:24;;;;;;;14.40;9.55;;;;;;;8.98;100.00;99731.78;1039160;28;20304;-80
2023/04/24 01:46:55;;;;;;;11.23;10.13;;;;;;;9.04;100.00;99737.22;1033481;28;20359;-78
2023/04/24 01:47:28;;;;;;;11.80;10.57;;;;;;;9.01;100.00;99737.69;1030408;28;20664;-78
2023/04/24 01:48:01;;;;;;;12.18;10.95;;;;;;;8.97;100.00;99735.50;1027606;28;20310;-80
2023/04/24 01:48:33;;;;;;;15.15;11.40;;;;;;;8.98;100.00;99737.09;1025233;28;20301;-78
2023/04/24 01:49:05;;;;;;;12.75;11.45;;;;;;;9.09;100.00;99735.50;1030323;28;20306;-81
2023/04/24 01:49:38;;;;;;;13.48;12.13;;;;;;;9.03;100.00;99732.94;1032404;28;20305;-80
2023/04/24 01:50:10;;;;;;;14.73;13.07;;;;;;;9.06;100.00;99740.47;1041514;28;20895;-81
2023/04/24 01:50:43;;;;;;;13.32;11.77;;;;;;;9.06;100.00;99735.16;1039920;28;20394;-81
2023/04/24 01:51:16;;;;;;;13.63;12.23;;;;;;;9.04;100.00;99726.59;1036851;28;20841;-82
2023/04/24 01:51:49;;;;;;;16.55;13.93;;;;;;;9.03;100.00;99735.59;1038301;28;20808;-81
2023/04/24 01:52:21;;;;;;;14.90;13.35;;;;;;;9.03;100.00;99736.41;1033475;28;20451;-82
2023/04/24 01:52:52;;;;;;;15.95;13.63;;;;;;;9.07;100.00;99731.47;1036691;28;20303;-82
2023/04/24 01:53:24;;;;;;;15.98;13.13;;;;;;;9.12;100.00;99739.53;1035533;28;20305;-82
2023/04/24 01:53:56;;;;;;;16.33;13.90;;;;;;;9.06;100.00;99729.84;1041925;28;20299;-82
2023/04/24 01:54:27;;;;;;;17.02;15.20;;;;;;;9.05;100.00;99738.84;1043468;28;20307;-81
2023/04/24 01:55:00;;;;;;;17.17;15.32;;;;;;;9.09;100.00;99727.53;1044551;28;20299;-82
2023/04/24 01:55:32;;;;;;;16.25;14.55;;;;;;;9.13;100.00;99730.50;1043396;28;20793;-82
2023/04/24 01:56:03;;;;;;;16.23;14.52;;;;;;;9.09;100.00;99734.69;1033925;28;20298;-82
2023/04/24 01:56:35;;;;;;;16.65;14.85;;;;;;;9.12;100.00;99734.22;1035790;28;20293;-82
2023/04/24 01:57:07;;;;;;;19.25;14.85;;;;;;;9.12;100.00;99731.56;1036428;28;20301;-81
2023/04/24 01:57:39;;;;;;;15.23;13.73;;;;;;;9.09;100.00;99734.69;1033969;28;20324;-82
2023/04/24 01:58:11;;;;;;;18.02;16.13;;;;;;;9.05;100.00;99723.72;1031796;28;20308;-82
2023/04/24 01:58:43;;;;;;;14.80;13.32;;;;;;;8.90;100.00;99721.53;1032633;28;20371;-82
2023/04/24 01:59:15;;;;;;;18.67;15.65;;;;;;;9.02;100.00;99731.31;1040740;28;20756;-82
2023/04/24 01:59:47;;;;;;;17.73;14.65;;;;;;;9.08;100.00;99733.06;1035647;28;20316;-82
2023/04/24 02:00:19;;;;;;;16.80;15.00;;;;;;;9.02;100.00;99737.44;1036410;28;20846;-82
2023/04/24 02:00:50;;;;;;;16.27;14.52;;;;;;;9.04;100.00;99734.56;1036105;28;20299;-82
2023/04/24 02:01:24;;;;;;;17.73;14.90;;;;;;;9.09;100.00;99734.69;1036655;28;20893;-82
2023/04/24 02:01:55;;;;;;;16.60;14.73;;;;;;;9.06;100.00;99730.66;1044170;28;20831;-82
2023/04/24 02:02:28;;;;;;;17.85;14.98;;;;;;;9.06;100.00;99738.63;1043775;28;20542;-82
2023/04/24 02:03:01;;;;;;;17.15;14.63;;;;;;;9.11;100.00;99732.59;1044251;28;20295;-82
2023/04/24 02:03:33;;;;;;;17.40;14.15;;;;;;;9.12;100.00;99734.22;1045196;28;20303;-81
2023/04/24 02:04:06;;;;;;;18.55;14.27;;;;;;;9.12;100.00;99728.91;1040756;28;20390;-79
2023/04/24 02:04:39;;;;;;;15.45;13.90;;;;;;;9.14;100.00;99734.78;1035857;28;20743;-79
2023/04/24 02:05:11;;;;;;;15.55;13.98;;;;;;;9.06;100.00;99735.16;1032202;28;20298;-79
2023/04/24 02:05:45;;;;;;;16.98;15.20;;;;;;;9.02;100.00;99734.78;1033568;28;20305;-79
2023/04/24 02:06:17;;;;;;;15.48;13.88;;;;;;;9.04;100.00;99731.91;1040419;28;20357;-79
2023/04/24 02:06:48;;;;;;;15.85;13.75;;;;;;;9.15;100.00;99728.44;1035814;28;20297;-79
2023/04/24 02:07:20;;;;;;;14.82;13.10;;;;;;;9.08;100.00;99738.38;1038474;28;20304;-79
2023/04/24 02:07:52;;;;;;;18.45;15.05;;;;;;;9.10;100.00;99730.97;1038805;28;20311;-79
2023/04/24 02:08:24;;;;;;;14.65;12.88;;;;;;;9.12;100.00;99736.88;1038248;28;20308;-79
2023/04/24 02:08:55;;;;;;;14.32;12.40;;;;;;;9.10;100.00;99733.63;1039939;28;20308;-79
2023/04/24 02:09:27;;;;;;;17.25;14.05;;;;;;;9.05;100.00;99742.31;1035783;28;20346;-79
2023/04/24 02:09:59;;;;;;;15.68;13.05;;;;;;;9.03;100.00;99736.41;1036093;28;20301;-78
2023/04/24 02:10:30;;;;;;;15.30;13.65;;;;;;;9.07;100.00;99740.22;1033617;28;20838;-79
2023/04/24 02:11:03;;;;;;;14.48;12.45;;;;;;;9.07;100.00;99736.78;1039555;28;20311;-79
2023/04/24 02:11:35;;;;;;;13.75;12.32;;;;;;;9.08;100.00;99746.34;1040830;28;20315;-79
2023/04/24 02:12:07;;;;;;;14.23;12.82;;;;;;;9.13;100.00;99741.13;1035144;28;20327;-78
2023/04/24 02:12:39;;;;;;;12.48;11.18;;;;;;;9.13;100.00;99741.94;1036253;28;20342;-79
2023/04/24 02:13:10;;;;;;;14.10;12.70;;;;;;;9.13;100.00;99741.94;1035971;28;20308;-79
2023/04/24 02:13:42;;;;;;;15.13;12.23;;;;;;;9.05;100.00;99738.84;1032645;28;20308;-79
2023/04/24 02:14:13;;;;;;;12.95;11.10;;;;;;;9.08;100.00;99738.38;1035833;28;20308;-78
2023/04/24 02:14:45;;;;;;;12.23;11.02;;;;;;;9.11;100.00;99743.22;1036051;28;20812;-78
2023/04/24 02:15:17;;;;;;;14.27;11.70;;;;;;;9.19;100.00;99748.16;1040182;28;20328;-79
2023/04/24 02:15:49;;;;;;;12.07;10.88;;;;;;;9.19;100.00;99746.31;1040399;28;20296;-78
2023/04/24 02:16:20;;;;;;;13.23;11.40;;;;;;;9.19;100.00;99748.16;1046723;28;20302;-79
2023/04/24 02:16:53;;;;;;;12.73;11.43;;;;;;;9.14;100.00;99759.50;1040005;28;20324;-79
2023/04/24 02:17:25;;;;;;;11.88;10.63;;;;;;;9.17;100.00;99755.56;1039704;28;20299;-79
2023/04/24 02:17:56;;;;;;;13.13;11.82;;;;;;;9.20;100.00;99747.94;1039728;28;20373;-78
2023/04/24 02:18:28;;;;;;;11.30;10.20;;;;;;;9.16;100.00;99756.63;1040266;28;20303;-79
2023/04/24 02:19:02;;;;;;;12.05;10.85;;;;;;;9.19;100.00;99751.63;1046663;28;20344;-78
2023/04/24 02:19:33;;;;;;;11.80;10.63;;;;;;;9.15;100.00;99749.69;1044694;28;20413;-79
2023/04/24 02:20:06;;;;;;;11.52;10.32;;;;;;;9.11;100.00;99753.84;1041820;28;20295;-79
2023/04/24 02:20:38;;;;;;;10.70;9.60;;;;;;;9.10;100.00;99746.94;1040652;28;20344;-78
2023/04/24 02:21:10;;;;;;;11.60;10.40;;;;;;;9.15;100.00;99745.19;1035646;28;20312;-78
2023/04/24 02:21:42;;;;;;;11.50;10.32;;;;;;;9.16;100.00;99746.00;1036421;28;20319;-78
2023/04/24 02:22:13;;;;;;;13.65;11.57;;;;;;;9.14;100.00;99748.06;1038340;28;20292;-79
2023/04/24 02:22:45;;;;;;;13.80;11.10;;;;;;;9.16;100.00;99751.31;1032506;28;20380;-79
2023/04/24 02:23:16;;;;;;;11.75;10.45;;;;;;;9.15;100.00;99755.00;1031476;28;20825;-78
2023/04/24 02:23:49;;;;;;;11.27;10.10;;;;;;;9.19;100.00;99750.81;1035410;28;20305;-78
2023/04/24 02:24:24;;;;;;;12.65;11.32;;;;;;;9.12;100.00;99750.16;1037236;28;20380;-79
2023/04/24 02:24:56;;;;;;;12.32;11.10;;;;;;;9.06;100.00;99748.44;1041728;28;20300;-80
2023/04/24 02:25:27;;;;;;;12.35;10.85;;;;;;;9.04;100.00;99747.84;1048371;28;20626;-81
2023/04/24 02:25:59;;;;;;;10.73;9.63;;;;;;;9.10;100.00;99745.06;1037947;28;20301;-81
2023/04/24 02:26:31;;;;;;;12.43;11.13;;;;;;;9.18;100.00;99736.75;1042275;28;20291;-81
2023/04/24 02:27:03;;;;;;;13.27;11.90;;;;;;;9.14;100.00;99748.06;1037291;28;20316;-80
2023/04/24 02:27:35;;;;;;;15.05;11.98;;;;;;;9.11;100.00;99740.56;1029694;28;20302;-81
2023/04/24 02:28:09;;;;;;;13.45;12.15;;;;;;;9.01;100.00;99737.69;1035408;28;20300;-80
2023/04/24 02:28:41;;;;;;;14.75;12.38;;;;;;;9.02;100.00;99744.59;1033514;28;20305;-78
2023/04/24 02:29:12;;;;;;;13.18;11.88;;;;;;;9.04;100.00;99742.53;1037348;28;20289;-78
2023/04/24 02:29:45;;;;;;;13.18;11.88;;;;;;;9.06;100.00;99745.78;1039584;28;20296;-78